Time,TemperatureF,DewpointF,PressureIn,WindDirection,WindDirectionDegrees,WindSpeedMPH,WindSpeedGustMPH,Humidity,HourlyPrecipIn,Conditions,Clouds,dailyrainin,SoftwareType,DateUTC
2013-01-20 00:00:00,35.2,28.1,29.97,West,270,2.7,-999.0,75,-99.99,,,0.00,Acu-Link.com,2013-01-20 05:00:00,
2013-01-20 00:15:00,35.6,27.1,29.97,WNW,292,3.2,-999.0,71,-99.99,,,0.00,Acu-Link.com,2013-01-20 05:15:00,
2013-01-20 00:30:00,35.4,27.6,29.97,WNW,292,4.2,-999.0,73,-99.99,,,0.00,Acu-Link.com,2013-01-20 05:30:00,
2013-01-20 00:45:00,34.7,27.6,29.96,WNW,292,4.7,-999.0,75,-99.99,,,0.00,Acu-Link.com,2013-01-20 05:45:00,
2013-01-20 01:00:00,34.0,27.2,29.95,West,270,3.2,-999.0,76,-99.99,,,0.00,Acu-Link.com,2013-01-20 06:00:00,
2013-01-20 01:16:00,34.3,27.2,29.96,WNW,292,4.7,-999.0,75,-99.99,,,0.00,Acu-Link.com,2013-01-20 06:16:00,
2013-01-20 01:31:00,34.9,27.5,29.95,WNW,292,4.7,-999.0,74,-99.99,,,0.00,Acu-Link.com,2013-01-20 06:31:00,
2013-01-20 01:46:00,35.4,27.3,29.94,WNW,292,6.8,-999.0,72,-99.99,,,0.00,Acu-Link.com,2013-01-20 06:46:00,
2013-01-20 02:02:00,35.8,26.6,29.96,WNW,292,4.7,-999.0,69,-99.99,,,0.00,Acu-Link.com,2013-01-20 07:02:00,
2013-01-20 02:17:00,36.9,26.6,29.95,NW,315,4.2,-999.0,66,-99.99,,,0.00,Acu-Link.com,2013-01-20 07:17:00,
2013-01-20 02:33:00,36.5,25.9,29.94,WNW,292,4.2,-999.0,65,-99.99,,,0.00,Acu-Link.com,2013-01-20 07:33:00,
2013-01-20 02:48:00,36.3,26.0,29.95,WNW,292,5.3,-999.0,66,-99.99,,,0.00,Acu-Link.com,2013-01-20 07:48:00,
2013-01-20 03:03:00,36.5,26.2,29.94,WNW,292,4.7,-999.0,66,-99.99,,,0.00,Acu-Link.com,2013-01-20 08:03:00,
2013-01-20 03:19:00,36.7,25.7,29.93,WNW,292,5.3,-999.0,64,-99.99,,,0.00,Acu-Link.com,2013-01-20 08:19:00,
2013-01-20 03:34:00,36.7,25.3,29.95,WNW,292,4.2,-999.0,63,-99.99,,,0.00,Acu-Link.com,2013-01-20 08:34:00,
2013-01-20 03:49:00,36.5,25.5,29.94,WNW,292,4.2,-999.0,64,-99.99,,,0.00,Acu-Link.com,2013-01-20 08:49:00,
2013-01-20 04:15:00,36.5,25.5,29.94,WNW,292,2.2,-999.0,64,-99.99,,,0.00,Acu-Link.com,2013-01-20 09:15:00,
2013-01-20 04:30:00,36.5,25.5,29.94,West,270,4.7,-999.0,64,-99.99,,,0.00,Acu-Link.com,2013-01-20 09:30:00,
2013-01-20 04:45:00,36.5,25.1,29.94,WNW,292,3.2,-999.0,63,-99.99,,,0.00,Acu-Link.com,2013-01-20 09:45:00,
2013-01-20 05:00:00,37.0,23.6,29.93,WNW,292,3.7,-999.0,58,-99.99,,,0.00,Acu-Link.com,2013-01-20 10:00:00,
2013-01-20 05:15:00,38.1,23.8,29.93,NNW,337,4.2,-999.0,56,-99.99,,,0.00,Acu-Link.com,2013-01-20 10:15:00,
2013-01-20 05:31:00,37.2,24.6,29.93,NW,315,2.7,-999.0,60,-99.99,,,0.00,Acu-Link.com,2013-01-20 10:31:00,
2013-01-20 05:46:00,36.3,24.9,29.93,West,270,1.7,-999.0,63,-99.99,,,0.00,Acu-Link.com,2013-01-20 10:46:00,
2013-01-20 06:01:00,35.2,25.0,29.93,WNW,292,2.7,-999.0,66,-99.99,,,0.00,Acu-Link.com,2013-01-20 11:01:00,
2013-01-20 06:17:00,34.2,25.1,29.92,West,270,2.2,-999.0,69,-99.99,,,0.00,Acu-Link.com,2013-01-20 11:17:00,
2013-01-20 06:32:00,34.0,24.9,29.92,West,270,0.0,-999.0,69,-99.99,,,0.00,Acu-Link.com,2013-01-20 11:32:00,
2013-01-20 06:47:00,34.0,24.6,29.94,West,270,1.1,-999.0,68,-99.99,,,0.00,Acu-Link.com,2013-01-20 11:47:00,
2013-01-20 07:03:00,34.5,25.4,29.95,NW,315,3.2,-999.0,69,-99.99,,,0.00,Acu-Link.com,2013-01-20 12:03:00,
2013-01-20 07:18:00,35.2,25.4,29.93,WNW,292,5.8,-999.0,67,-99.99,,,0.00,Acu-Link.com,2013-01-20 12:18:00,
2013-01-20 07:33:00,36.1,25.9,29.94,WNW,292,3.2,-999.0,66,-99.99,,,0.00,Acu-Link.com,2013-01-20 12:33:00,
2013-01-20 07:49:00,37.2,26.5,29.95,NW,315,1.7,-999.0,65,-99.99,,,0.00,Acu-Link.com,2013-01-20 12:49:00,
2013-01-20 08:04:00,38.8,27.7,29.95,NW,315,5.3,-999.0,64,-99.99,,,0.00,Acu-Link.com,2013-01-20 13:04:00,
2013-01-20 08:19:00,40.1,29.3,29.95,NW,315,4.2,-999.0,65,-99.99,,,0.00,Acu-Link.com,2013-01-20 13:19:00,
2013-01-20 08:35:00,41.7,30.8,29.95,WNW,292,4.2,-999.0,65,-99.99,,,0.00,Acu-Link.com,2013-01-20 13:35:00,
2013-01-20 08:50:00,42.8,32.6,29.95,West,270,5.3,-999.0,67,-99.99,,,0.00,Acu-Link.com,2013-01-20 13:50:00,
2013-01-20 09:05:00,43.5,33.3,29.95,NW,315,4.2,-999.0,67,-99.99,,,0.00,Acu-Link.com,2013-01-20 14:05:00,
2013-01-20 09:21:00,45.5,34.4,29.95,NW,315,4.2,-999.0,65,-99.99,,,0.00,Acu-Link.com,2013-01-20 14:21:00,
2013-01-20 09:36:00,46.0,35.3,29.95,NNW,337,3.7,-999.0,66,-99.99,,,0.00,Acu-Link.com,2013-01-20 14:36:00,
2013-01-20 09:51:00,47.8,35.8,29.95,NW,315,3.7,-999.0,63,-99.99,,,0.00,Acu-Link.com,2013-01-20 14:51:00,
2013-01-20 10:06:00,47.5,36.7,29.95,West,270,4.7,-999.0,66,-99.99,,,0.00,Acu-Link.com,2013-01-20 15:06:00,
2013-01-20 10:22:00,48.9,38.4,29.96,NNW,337,3.2,-999.0,67,-99.99,,,0.00,Acu-Link.com,2013-01-20 15:22:00,
2013-01-20 10:37:00,51.4,38.4,29.96,West,270,4.2,-999.0,61,-99.99,,,0.00,Acu-Link.com,2013-01-20 15:37:00,
2013-01-20 10:52:00,53.4,39.0,29.96,West,270,7.3,-999.0,58,-99.99,,,0.00,Acu-Link.com,2013-01-20 15:52:00,
2013-01-20 11:07:00,54.3,38.5,29.96,WNW,292,4.2,-999.0,55,-99.99,,,0.00,Acu-Link.com,2013-01-20 16:07:00,
2013-01-20 11:23:00,56.1,39.7,29.95,NW,315,3.2,-999.0,54,-99.99,,,0.00,Acu-Link.com,2013-01-20 16:23:00,
2013-01-20 11:38:00,57.6,40.1,29.94,WNW,292,3.2,-999.0,52,-99.99,,,0.00,Acu-Link.com,2013-01-20 16:38:00,
2013-01-20 11:53:00,59.4,40.2,29.93,WNW,292,3.7,-999.0,49,-99.99,,,0.00,Acu-Link.com,2013-01-20 16:53:00,
2013-01-20 12:09:00,58.3,39.7,29.93,NNE,22,2.2,-999.0,50,-99.99,,,0.00,Acu-Link.com,2013-01-20 17:09:00,
2013-01-20 12:24:00,59.0,40.9,29.91,NW,315,3.7,-999.0,51,-99.99,,,0.00,Acu-Link.com,2013-01-20 17:24:00,
2013-01-20 12:39:00,59.9,39.1,29.91,WNW,292,4.2,-999.0,46,-99.99,,,0.00,Acu-Link.com,2013-01-20 17:39:00,
2013-01-20 12:55:00,62.6,40.4,29.90,WNW,292,5.3,-999.0,44,-99.99,,,0.00,Acu-Link.com,2013-01-20 17:55:00,
2013-01-20 13:10:00,63.1,42.5,29.90,NW,315,3.7,-999.0,47,-99.99,,,0.00,Acu-Link.com,2013-01-20 18:10:00,
2013-01-20 13:25:00,62.4,42.4,29.89,ENE,67,3.7,-999.0,48,-99.99,,,0.00,Acu-Link.com,2013-01-20 18:25:00,
2013-01-20 13:40:00,61.7,41.8,29.88,NW,315,4.2,-999.0,48,-99.99,,,0.00,Acu-Link.com,2013-01-20 18:40:00,
2013-01-20 13:56:00,60.6,41.3,29.88,NNW,337,4.7,-999.0,49,-99.99,,,0.00,Acu-Link.com,2013-01-20 18:56:00,
2013-01-20 14:11:00,60.3,41.1,29.88,NNW,337,4.7,-999.0,49,-99.99,,,0.00,Acu-Link.com,2013-01-20 19:11:00,
2013-01-20 14:26:00,59.5,41.4,29.88,North,0,3.7,-999.0,51,-99.99,,,0.00,Acu-Link.com,2013-01-20 19:26:00,
2013-01-20 14:41:00,59.7,41.0,29.86,NNW,337,6.3,-999.0,50,-99.99,,,0.00,Acu-Link.com,2013-01-20 19:41:00,
2013-01-20 14:57:00,59.5,40.3,29.88,West,270,5.3,-999.0,49,-99.99,,,0.00,Acu-Link.com,2013-01-20 19:57:00,
2013-01-20 15:12:00,59.0,39.3,29.87,NW,315,3.7,-999.0,48,-99.99,,,0.00,Acu-Link.com,2013-01-20 20:12:00,
2013-01-20 15:27:00,60.1,39.8,29.86,NNW,337,3.2,-999.0,47,-99.99,,,0.00,Acu-Link.com,2013-01-20 20:27:00,
2013-01-20 15:43:00,58.1,38.5,29.86,East,90,2.2,-999.0,48,-99.99,,,0.00,Acu-Link.com,2013-01-20 20:43:00,
2013-01-20 15:58:00,57.4,36.2,29.87,NNE,22,2.7,-999.0,45,-99.99,,,0.00,Acu-Link.com,2013-01-20 20:58:00,
2013-01-20 16:13:00,55.9,36.0,29.88,WNW,292,3.7,-999.0,47,-99.99,,,0.00,Acu-Link.com,2013-01-20 21:13:00,
2013-01-20 16:29:00,52.7,35.1,29.88,NE,45,1.7,-999.0,51,-99.99,,,0.00,Acu-Link.com,2013-01-20 21:29:00,
2013-01-20 16:44:00,50.9,33.9,29.88,ESE,112,1.1,-999.0,52,-99.99,,,0.00,Acu-Link.com,2013-01-20 21:44:00,
2013-01-20 16:59:00,49.5,34.0,29.90,NNW,337,5.3,-999.0,55,-99.99,,,0.00,Acu-Link.com,2013-01-20 21:59:00,
2013-01-20 17:15:00,48.7,34.2,29.89,NNW,337,5.8,-999.0,57,-99.99,,,0.00,Acu-Link.com,2013-01-20 22:15:00,
2013-01-20 17:30:00,47.5,33.9,29.89,North,0,9.4,-999.0,59,-99.99,,,0.00,Acu-Link.com,2013-01-20 22:30:00,
2013-01-20 17:45:00,46.4,32.0,29.90,North,0,4.2,-999.0,57,-99.99,,,0.00,Acu-Link.com,2013-01-20 22:45:00,
2013-01-20 18:01:00,45.7,32.6,29.91,NNW,337,4.7,-999.0,60,-99.99,,,0.00,Acu-Link.com,2013-01-20 23:01:00,
2013-01-20 18:16:00,45.3,33.1,29.90,NW,315,7.8,-999.0,62,-99.99,,,0.00,Acu-Link.com,2013-01-20 23:16:00,
2013-01-20 18:46:00,43.9,33.7,29.91,NW,315,6.8,-999.0,67,-99.99,,,0.00,Acu-Link.com,2013-01-20 23:46:00,
2013-01-20 19:01:00,43.2,33.7,29.91,NNE,22,7.8,-999.0,69,-99.99,,,0.00,Acu-Link.com,2013-01-21 00:01:00,
2013-01-20 19:17:00,43.0,34.3,29.92,NNW,337,7.3,-999.0,71,-99.99,,,0.00,Acu-Link.com,2013-01-21 00:17:00,
2013-01-20 19:32:00,42.3,34.3,29.92,NNW,337,7.3,-999.0,73,-99.99,,,0.00,Acu-Link.com,2013-01-21 00:32:00,
2013-01-20 19:48:00,41.7,34.0,29.92,NNW,337,7.3,-999.0,74,-99.99,,,0.00,Acu-Link.com,2013-01-21 00:48:00,
2013-01-20 20:03:00,41.7,34.0,29.93,NW,315,7.3,-999.0,74,-99.99,,,0.00,Acu-Link.com,2013-01-21 01:03:00,
2013-01-20 20:18:00,41.2,33.9,29.93,NW,315,6.3,-999.0,75,-99.99,,,0.00,Acu-Link.com,2013-01-21 01:18:00,
2013-01-20 20:33:00,41.2,33.6,29.93,NNW,337,6.8,-999.0,74,-99.99,,,0.00,Acu-Link.com,2013-01-21 01:33:00,
2013-01-20 20:49:00,41.0,33.0,29.93,NNW,337,6.8,-999.0,73,-99.99,,,0.00,Acu-Link.com,2013-01-21 01:49:00,
2013-01-20 21:04:00,40.6,33.0,29.94,WNW,292,7.3,-999.0,74,-99.99,,,0.00,Acu-Link.com,2013-01-21 02:04:00,
2013-01-20 21:19:00,40.6,33.0,29.93,NNW,337,5.3,-999.0,74,-99.99,,,0.00,Acu-Link.com,2013-01-21 02:19:00,
2013-01-20 21:35:00,39.9,33.0,29.93,NNW,337,4.2,-999.0,76,-99.99,,,0.00,Acu-Link.com,2013-01-21 02:35:00,
2013-01-20 21:50:00,38.7,32.1,29.94,ESE,112,2.2,-999.0,77,-99.99,,,0.00,Acu-Link.com,2013-01-21 02:50:00,
2013-01-20 22:05:00,37.8,31.6,29.95,West,270,0.0,-999.0,78,-99.99,,,0.00,Acu-Link.com,2013-01-21 03:05:00,
2013-01-20 22:20:00,36.7,31.1,29.95,West,270,0.0,-999.0,80,-99.99,,,0.00,Acu-Link.com,2013-01-21 03:20:00,
2013-01-20 22:36:00,36.9,31.6,29.95,SW,225,2.7,-999.0,81,-99.99,,,0.00,Acu-Link.com,2013-01-21 03:36:00,
2013-01-20 22:51:00,38.1,32.2,29.94,NW,315,3.2,-999.0,79,-99.99,,,0.00,Acu-Link.com,2013-01-21 03:51:00,
2013-01-20 23:06:00,39.0,32.4,29.94,NW,315,4.7,-999.0,77,-99.99,,,0.00,Acu-Link.com,2013-01-21 04:06:00,
2013-01-20 23:22:00,37.8,31.9,29.94,SW,225,0.0,-999.0,79,-99.99,,,0.00,Acu-Link.com,2013-01-21 04:22:00,
2013-01-20 23:37:00,36.5,32.1,29.93,West,270,3.2,-999.0,84,-99.99,,,0.00,Acu-Link.com,2013-01-21 04:37:00,
2013-01-20 23:52:00,34.5,34.0,29.92,WNW,292,3.7,-999.0,98,-99.99,,,0.00,Acu-Link.com,2013-01-21 04:52:00,